Time;durP1;ratioP1;P1;durP2;ratioP2;P2;SDS_P1;SDS_P2;PMS_P1;PMS_P2;Temp;Humidity;BMP_temperature;BMP_pressure;BME280_temperature;BME280_humidity;BME280_pressure;Samples;Min_cycle;Max_cycle;Signal;HPM_P1;HPM_P2
2022/09/10 00:01:39;;;;;;;3.57;1.73;;;16.70;99.90;;;;;;5074629;28;20967;-59
2022/09/10 00:04:10;;;;;;;2.93;1.60;;;16.50;99.90;;;;;;5074976;28;20440;-59
2022/09/10 00:06:37;;;;;;;3.13;1.70;;;16.50;99.90;;;;;;5074951;28;20436;-59
2022/09/10 00:09:07;;;;;;;4.17;1.90;;;16.50;99.90;;;;;;5075023;28;20547;-60
2022/09/10 00:11:37;;;;;;;1.60;1.50;;;16.40;99.90;;;;;;5074566;28;20478;-59
2022/09/10 00:14:06;;;;;;;4.90;1.90;;;16.50;99.90;;;;;;5074713;28;20982;-59
2022/09/10 00:16:33;;;;;;;3.80;2.07;;;16.50;99.90;;;;;;5074559;28;20962;-59
2022/09/10 00:19:01;;;;;;;2.30;2.00;;;16.50;99.90;;;;;;5074689;28;20493;-59
2022/09/10 00:21:29;;;;;;;3.33;1.87;;;16.80;99.90;;;;;;5074583;28;20526;-59
2022/09/10 00:23:57;;;;;;;3.50;1.80;;;16.70;99.90;;;;;;5074469;28;20479;-59
2022/09/10 00:26:28;;;;;;;2.57;1.70;;;16.70;99.90;;;;;;5074184;28;20831;-59
2022/09/10 00:28:59;;;;;;;2.83;1.90;;;16.60;99.90;;;;;;5074243;28;20941;-59
2022/09/10 00:31:28;;;;;;;3.00;1.57;;;16.70;99.90;;;;;;5074254;28;21002;-59
2022/09/10 00:33:55;;;;;;;4.80;1.93;;;16.80;99.90;;;;;;5074127;28;20482;-59
2022/09/10 00:36:24;;;;;;;7.33;2.67;;;16.70;99.90;;;;;;5074042;28;20970;-59
2022/09/10 00:38:53;;;;;;;4.90;1.90;;;16.60;99.90;;;;;;5074329;28;21012;-59
2022/09/10 00:41:23;;;;;;;2.90;1.70;;;16.60;99.90;;;;;;5074056;28;20853;-59
2022/09/10 00:43:56;;;;;;;2.83;1.87;;;16.70;99.90;;;;;;5074703;28;20498;-60
2022/09/10 00:46:33;;;;;;;2.80;1.60;;;16.90;99.90;;;;;;5073907;28;20912;-59
2022/09/10 00:49:04;;;;;;;2.60;1.60;;;16.60;99.90;;;;;;5073663;28;20472;-59
2022/09/10 00:51:35;;;;;;;1.60;1.40;;;16.50;99.90;;;;;;5074043;28;20503;-59
2022/09/10 00:54:04;;;;;;;1.67;1.40;;;16.50;99.90;;;;;;5073363;28;20464;-59
2022/09/10 00:56:32;;;;;;;1.70;1.60;;;16.50;99.90;;;;;;5073954;28;20478;-59
2022/09/10 00:59:01;;;;;;;1.70;1.60;;;16.50;99.90;;;;;;5073964;28;20456;-59
2022/09/10 01:01:29;;;;;;;2.70;1.60;;;16.60;99.90;;;;;;5073659;28;21009;-59
2022/09/10 01:03:57;;;;;;;1.60;1.27;;;16.70;99.90;;;;;;5073855;28;20539;-59
2022/09/10 01:06:24;;;;;;;1.93;1.53;;;16.70;99.90;;;;;;5073465;28;20454;-59
2022/09/10 01:08:52;;;;;;;1.60;1.50;;;16.50;99.90;;;;;;5073912;28;20459;-59
2022/09/10 01:11:36;;;;;;;1.50;1.40;;;16.50;99.90;;;;;;5073681;28;20495;-59
2022/09/10 01:14:28;;;;;;;4.33;1.30;;;16.50;99.90;;;;;;5073715;28;20468;-59
2022/09/10 01:17:04;;;;;;;2.53;1.57;;;16.50;99.90;;;;;;5074024;28;20527;-59
2022/09/10 01:19:52;;;;;;;2.20;1.83;;;16.50;99.90;;;;;;5073377;28;20429;-59
2022/09/10 01:22:29;;;;;;;1.63;1.53;;;16.60;99.90;;;;;;5073354;28;20598;-60
2022/09/10 01:24:59;;;;;;;2.80;1.57;;;16.50;99.90;;;;;;5073205;28;20434;-59
2022/09/10 01:27:41;;;;;;;2.20;1.70;;;16.50;99.90;;;;;;5073151;28;20462;-59
2022/09/10 01:30:13;;;;;;;2.30;1.80;;;16.30;99.90;;;;;;5073206;28;20429;-59
2022/09/10 01:32:51;;;;;;;1.50;1.40;;;16.30;99.90;;;;;;5073545;28;20465;-60
2022/09/10 01:35:23;;;;;;;3.40;1.60;;;16.50;99.90;;;;;;5073373;28;20755;-59
2022/09/10 01:37:54;;;;;;;1.43;1.30;;;16.60;99.90;;;;;;5073449;28;20425;-59
2022/09/10 01:40:28;;;;;;;1.47;1.30;;;16.50;99.90;;;;;;5073085;28;20911;-59
2022/09/10 01:43:00;;;;;;;1.43;1.30;;;16.40;99.90;;;;;;5073613;28;20460;-59
2022/09/10 01:45:28;;;;;;;2.07;1.57;;;16.30;99.90;;;;;;5073472;28;20432;-59
2022/09/10 01:48:22;;;;;;;1.60;1.50;;;16.00;99.90;;;;;;5073052;28;20767;-59
2022/09/10 01:50:56;;;;;;;2.17;1.30;;;16.20;99.90;;;;;;5072015;28;20987;-60
2022/09/10 01:53:38;;;;;;;2.30;1.73;;;16.20;99.90;;;;;;5073046;28;20466;-59
2022/09/10 01:56:17;;;;;;;1.87;1.70;;;16.10;99.90;;;;;;5073275;28;20429;-59
2022/09/10 01:58:47;;;;;;;3.53;1.40;;;16.20;99.90;;;;;;5073003;28;20870;-59
2022/09/10 02:01:20;;;;;;;2.60;1.57;;;16.20;99.90;;;;;;5073137;28;20491;-59
2022/09/10 02:03:50;;;;;;;2.80;1.20;;;16.10;99.90;;;;;;5072993;28;20463;-59
2022/09/10 02:06:21;;;;;;;2.13;1.40;;;16.00;99.90;;;;;;5076059;28;20535;-59
2022/09/10 02:08:55;;;;;;;1.87;1.70;;;16.20;99.90;;;;;;5076912;28;20429;-60
2022/09/10 02:11:22;;;;;;;6.70;1.80;;;16.20;99.90;;;;;;5077107;28;20486;-59
2022/09/10 02:13:52;;;;;;;4.00;1.73;;;16.20;99.90;;;;;;5076903;28;20475;-59
2022/09/10 02:16:25;;;;;;;2.80;1.70;;;16.20;99.90;;;;;;5077093;28;20539;-60
2022/09/10 02:18:52;;;;;;;2.30;1.57;;;16.00;99.90;;;;;;5077093;28;20428;-59
2022/09/10 02:21:20;;;;;;;4.73;2.00;;;15.90;99.90;;;;;;5077013;28;20474;-59
2022/09/10 02:23:50;;;;;;;3.13;1.70;;;16.20;99.90;;;;;;5077095;28;20776;-58
2022/09/10 02:26:17;;;;;;;3.90;2.20;;;16.10;99.90;;;;;;5076842;28;20444;-59
2022/09/10 02:28:48;;;;;;;1.60;1.50;;;15.90;99.90;;;;;;5076501;28;20977;-59
2022/09/10 02:31:17;;;;;;;2.60;1.60;;;15.90;99.90;;;;;;5076892;28;20525;-59
2022/09/10 02:33:44;;;;;;;2.57;1.87;;;16.30;99.90;;;;;;5076653;28;20878;-59
2022/09/10 02:36:11;;;;;;;5.53;4.23;;;16.30;99.90;;;;;;5076673;28;20445;-59
2022/09/10 02:38:39;;;;;;;5.73;1.87;;;16.60;99.90;;;;;;5076445;28;20448;-59
2022/09/10 02:41:08;;;;;;;2.90;1.73;;;16.50;99.90;;;;;;5076474;28;20556;-59
2022/09/10 02:43:36;;;;;;;2.30;1.53;;;16.50;99.90;;;;;;5076250;28;20472;-59
2022/09/10 02:46:06;;;;;;;1.70;1.60;;;16.50;99.90;;;;;;5076631;28;20454;-59
2022/09/10 02:48:34;;;;;;;3.10;1.43;;;16.50;99.90;;;;;;5076282;28;20480;-59
2022/09/10 02:51:02;;;;;;;3.73;1.77;;;16.60;99.90;;;;;;5075908;28;20492;-59
2022/09/10 02:53:30;;;;;;;3.10;1.50;;;16.70;99.90;;;;;;5075983;28;20541;-59
2022/09/10 02:55:59;;;;;;;2.70;1.87;;;16.70;99.90;;;;;;5076423;28;20448;-59
2022/09/10 02:58:26;;;;;;;2.10;1.40;;;16.60;99.90;;;;;;5076272;28;20447;-59
2022/09/10 03:00:54;;;;;;;3.10;1.57;;;16.60;99.90;;;;;;5076080;28;20467;-59
2022/09/10 03:03:21;;;;;;;2.10;1.50;;;16.60;99.90;;;;;;5075991;28;20543;-59
2022/09/10 03:05:50;;;;;;;7.80;1.53;;;16.40;99.90;;;;;;5076146;28;20803;-58
2022/09/10 03:08:17;;;;;;;2.23;1.50;;;16.80;99.90;;;;;;5075758;28;20961;-59
2022/09/10 03:10:44;;;;;;;4.77;1.50;;;16.90;99.90;;;;;;5075767;28;20433;-59
2022/09/10 03:13:11;;;;;;;1.80;1.60;;;16.70;99.90;;;;;;5076083;28;20436;-59
2022/09/10 03:15:38;;;;;;;2.27;1.40;;;16.80;99.90;;;;;;5075872;28;20570;-59
2022/09/10 03:18:08;;;;;;;2.90;1.50;;;16.90;99.90;;;;;;5075303;28;20443;-59
2022/09/10 03:20:35;;;;;;;2.00;1.40;;;17.10;99.90;;;;;;5075843;28;20850;-59
2022/09/10 03:23:03;;;;;;;3.00;1.90;;;17.20;99.90;;;;;;5075921;28;20448;-59
2022/09/10 03:25:30;;;;;;;5.10;2.10;;;16.90;99.90;;;;;;5075729;28;20440;-59
2022/09/10 03:27:58;;;;;;;2.57;1.80;;;16.60;99.90;;;;;;5075857;28;20452;-59
2022/09/10 03:30:25;;;;;;;2.23;1.60;;;16.80;99.90;;;;;;5075707;28;20502;-59
2022/09/10 03:32:53;;;;;;;2.47;1.23;;;16.80;99.90;;;;;;5075364;28;20539;-59
2022/09/10 03:35:21;;;;;;;2.47;1.33;;;16.70;99.90;;;;;;5075694;28;20487;-59
2022/09/10 03:37:48;;;;;;;3.50;1.70;;;16.70;99.90;;;;;;5075560;28;20459;-59
2022/09/10 03:40:16;;;;;;;4.00;1.80;;;16.70;99.90;;;;;;5075239;28;20489;-59
2022/09/10 03:42:44;;;;;;;1.57;1.40;;;16.30;99.90;;;;;;5075731;28;20974;-59
2022/09/10 03:45:12;;;;;;;3.37;1.60;;;16.20;99.90;;;;;;5075460;28;20472;-59
2022/09/10 03:47:39;;;;;;;2.53;1.80;;;16.10;99.90;;;;;;5075361;28;20448;-59
2022/09/10 03:50:07;;;;;;;1.60;1.50;;;16.30;99.90;;;;;;5075099;28;20480;-59
2022/09/10 03:52:34;;;;;;;3.90;1.80;;;16.70;99.90;;;;;;5075220;28;20473;-59
2022/09/10 03:55:01;;;;;;;2.53;1.30;;;16.50;99.90;;;;;;5074972;28;20480;-59
2022/09/10 03:57:30;;;;;;;3.53;1.73;;;16.60;99.90;;;;;;5075001;28;20451;-59
2022/09/10 03:59:57;;;;;;;2.07;1.87;;;16.50;99.90;;;;;;5075121;28;20452;-59
2022/09/10 04:02:24;;;;;;;2.57;2.00;;;16.30;99.90;;;;;;5074679;28;20471;-59
2022/09/10 04:04:51;;;;;;;2.87;1.57;;;16.20;99.90;;;;;;5075223;28;20796;-59
2022/09/10 04:07:20;;;;;;;2.27;1.30;;;16.00;99.90;;;;;;5075001;28;20527;-59
2022/09/10 04:09:47;;;;;;;2.57;1.73;;;16.10;99.90;;;;;;5074762;28;20448;-59
2022/09/10 04:12:14;;;;;;;2.10;1.77;;;16.20;99.90;;;;;;5075053;28;20472;-59
2022/09/10 04:14:44;;;;;;;1.80;1.70;;;16.20;99.90;;;;;;5074911;28;20533;-59
2022/09/10 04:17:11;;;;;;;2.00;1.80;;;16.20;99.90;;;;;;5074774;28;20459;-59
2022/09/10 04:19:39;;;;;;;2.77;1.80;;;16.20;99.90;;;;;;5074478;28;20436;-59
2022/09/10 04:22:06;;;;;;;3.73;1.97;;;16.30;99.90;;;;;;5074785;28;20494;-60
2022/09/10 04:24:33;;;;;;;2.27;1.40;;;16.20;99.90;;;;;;5074339;28;20487;-59
2022/09/10 04:27:03;;;;;;;4.23;1.73;;;16.60;99.90;;;;;;5074136;28;20455;-59
2022/09/10 04:29:31;;;;;;;1.87;1.57;;;16.50;99.90;;;;;;5074631;28;20451;-60
2022/09/10 04:31:59;;;;;;;3.07;1.70;;;16.50;99.90;;;;;;5074068;28;20460;-59
2022/09/10 04:34:27;;;;;;;1.90;1.70;;;16.40;99.90;;;;;;5074340;28;20841;-59
2022/09/10 04:36:57;;;;;;;2.37;1.90;;;16.20;99.90;;;;;;5074494;28;20449;-59
2022/09/10 04:39:26;;;;;;;2.60;1.53;;;16.50;99.90;;;;;;5074388;28;20527;-59
2022/09/10 04:41:59;;;;;;;2.80;1.93;;;16.80;99.90;;;;;;5074305;28;20472;-59
2022/09/10 04:44:26;;;;;;;2.10;1.67;;;16.80;99.90;;;;;;5074260;28;20859;-59
2022/09/10 04:46:53;;;;;;;2.10;1.57;;;16.60;99.90;;;;;;5074046;28;20452;-59
2022/09/10 04:49:22;;;;;;;3.47;1.97;;;16.70;99.90;;;;;;5073570;28;20475;-59
2022/09/10 04:51:49;;;;;;;2.90;2.70;;;16.80;99.90;;;;;;5073837;28;20451;-59
2022/09/10 04:54:18;;;;;;;3.20;1.73;;;16.60;99.90;;;;;;5073779;28;20490;-60
2022/09/10 04:56:46;;;;;;;1.80;1.50;;;16.50;99.90;;;;;;5073965;28;20458;-60
2022/09/10 04:59:13;;;;;;;4.07;1.70;;;16.40;99.90;;;;;;5073927;28;20452;-59
2022/09/10 05:01:41;;;;;;;2.37;1.60;;;16.30;99.90;;;;;;5073997;28;20897;-59
2022/09/10 05:04:08;;;;;;;1.60;1.50;;;16.30;99.90;;;;;;5073809;28;20444;-59
2022/09/10 05:06:36;;;;;;;1.40;1.30;;;16.30;99.90;;;;;;5073680;28;20443;-59
2022/09/10 05:09:03;;;;;;;2.30;1.50;;;16.40;99.90;;;;;;5073875;28;20455;-59
2022/09/10 05:11:31;;;;;;;1.70;1.60;;;16.50;99.90;;;;;;5073800;28;20485;-59
2022/09/10 05:13:58;;;;;;;1.73;1.63;;;16.70;99.90;;;;;;5073593;28;20523;-59
2022/09/10 05:16:25;;;;;;;1.87;1.50;;;17.00;99.90;;;;;;5073463;28;20997;-60
2022/09/10 05:18:53;;;;;;;3.50;2.03;;;16.90;99.90;;;;;;5073770;28;20501;-59
2022/09/10 05:21:21;;;;;;;2.60;1.60;;;17.00;99.90;;;;;;5073215;28;20468;-59
2022/09/10 05:23:49;;;;;;;4.53;1.70;;;17.10;99.90;;;;;;5073270;28;20923;-59
2022/09/10 05:26:17;;;;;;;4.03;1.60;;;17.00;99.90;;;;;;5073495;28;20451;-59
2022/09/10 05:28:44;;;;;;;2.87;1.50;;;16.90;99.90;;;;;;5073221;28;20451;-60
2022/09/10 05:31:11;;;;;;;1.73;1.50;;;17.00;99.90;;;;;;5073413;28;20468;-59
2022/09/10 05:33:39;;;;;;;3.10;1.40;;;16.90;99.90;;;;;;5073563;28;20448;-59
2022/09/10 05:36:08;;;;;;;1.60;1.30;;;16.90;99.90;;;;;;5073047;28;20533;-59
2022/09/10 05:38:35;;;;;;;4.20;1.57;;;16.60;99.90;;;;;;5073067;28;20452;-59
2022/09/10 05:41:05;;;;;;;1.33;1.10;;;16.60;99.90;;;;;;5072969;28;20534;-59
2022/09/10 05:43:32;;;;;;;3.57;1.40;;;16.50;99.90;;;;;;5073635;28;20448;-59
2022/09/10 05:46:00;;;;;;;5.33;1.50;;;16.50;99.90;;;;;;5073324;28;20440;-59
2022/09/10 05:48:27;;;;;;;1.80;1.70;;;16.50;99.90;;;;;;5073442;28;20447;-59
2022/09/10 05:50:55;;;;;;;1.63;1.50;;;16.50;99.90;;;;;;5072758;28;20978;-59
2022/09/10 05:53:22;;;;;;;1.90;1.57;;;16.50;99.90;;;;;;5072936;28;20453;-59
2022/09/10 05:55:49;;;;;;;1.60;1.50;;;16.40;99.90;;;;;;5072954;28;20853;-59
2022/09/10 05:58:18;;;;;;;2.60;1.50;;;16.40;99.90;;;;;;5073368;28;20463;-59
2022/09/10 06:00:45;;;;;;;2.00;1.80;;;16.70;99.90;;;;;;5072908;28;20444;-59
2022/09/10 06:03:12;;;;;;;3.27;1.43;;;16.80;99.90;;;;;;5073243;28;20483;-59
2022/09/10 06:05:39;;;;;;;2.10;1.60;;;16.70;99.90;;;;;;5073294;28;20443;-59
2022/09/10 06:08:07;;;;;;;1.77;1.20;;;16.80;99.90;;;;;;5072965;28;20425;-59
2022/09/10 06:10:34;;;;;;;2.57;2.07;;;16.70;99.90;;;;;;5073032;28;20630;-59
2022/09/10 06:13:01;;;;;;;1.97;1.73;;;17.00;99.90;;;;;;5073207;28;20444;-60
2022/09/10 06:15:33;;;;;;;2.00;1.53;;;16.80;99.90;;;;;;5072928;28;20508;-59
2022/09/10 06:18:00;;;;;;;2.47;1.77;;;16.80;99.90;;;;;;5072981;28;20429;-59
2022/09/10 06:20:28;;;;;;;1.90;1.50;;;16.50;99.90;;;;;;5072770;28;20476;-59
2022/09/10 06:22:55;;;;;;;2.17;1.93;;;16.90;99.90;;;;;;5072597;28;20934;-60
2022/09/10 06:25:22;;;;;;;3.33;1.80;;;17.00;99.90;;;;;;5072515;28;20480;-59
2022/09/10 06:27:50;;;;;;;3.60;1.50;;;17.00;99.90;;;;;;5072778;28;20452;-60
2022/09/10 06:30:19;;;;;;;1.60;1.50;;;17.10;99.90;;;;;;5072864;28;20444;-59
2022/09/10 06:32:48;;;;;;;1.90;1.60;;;17.00;99.90;;;;;;5072785;28;20969;-59
2022/09/10 06:35:15;;;;;;;2.90;1.63;;;17.20;99.90;;;;;;5072630;28;20475;-60
2022/09/10 06:37:42;;;;;;;1.63;1.33;;;17.00;99.90;;;;;;5072501;28;20448;-60
2022/09/10 06:40:10;;;;;;;2.40;1.77;;;16.90;99.90;;;;;;5072725;28;20459;-60
2022/09/10 06:42:38;;;;;;;3.43;1.70;;;17.20;99.90;;;;;;5072836;28;20483;-60
2022/09/10 06:45:06;;;;;;;1.60;1.30;;;17.40;99.90;;;;;;5072636;28;21109;-59
2022/09/10 06:47:33;;;;;;;2.83;1.50;;;17.50;99.90;;;;;;5072717;28;20566;-59
2022/09/10 06:50:01;;;;;;;3.80;1.50;;;17.20;99.90;;;;;;5072404;28;20465;-59
2022/09/10 06:52:29;;;;;;;3.33;1.60;;;17.30;99.90;;;;;;5073786;28;20475;-59
2022/09/10 06:54:56;;;;;;;1.40;1.23;;;17.10;99.90;;;;;;5076273;28;20516;-60
2022/09/10 06:57:25;;;;;;;4.80;1.70;;;17.30;99.90;;;;;;5076101;28;20927;-59
2022/09/10 06:59:53;;;;;;;2.77;1.50;;;17.70;99.90;;;;;;5076035;28;20535;-59
2022/09/10 07:02:20;;;;;;;2.07;1.70;;;17.70;99.90;;;;;;5075844;28;20464;-59
2022/09/10 07:04:47;;;;;;;1.40;1.20;;;17.60;99.90;;;;;;5075852;28;20448;-60
2022/09/10 07:07:16;;;;;;;1.83;1.20;;;17.70;99.90;;;;;;5075857;28;20462;-59
2022/09/10 07:09:43;;;;;;;4.07;1.57;;;17.50;99.90;;;;;;5075901;28;20452;-59
2022/09/10 07:12:10;;;;;;;1.40;1.30;;;17.40;99.90;;;;;;5076008;28;20567;-59
2022/09/10 07:14:37;;;;;;;3.03;1.20;;;17.80;99.90;;;;;;5076225;28;20531;-60
2022/09/10 07:17:04;;;;;;;2.50;1.87;;;17.90;99.90;;;;;;5075895;28;20444;-59
2022/09/10 07:19:35;;;;;;;1.60;1.30;;;17.80;99.90;;;;;;5075788;28;20535;-59
2022/09/10 07:22:02;;;;;;;4.03;1.30;;;17.90;99.90;;;;;;5075694;28;20526;-60
2022/09/10 07:24:30;;;;;;;1.53;1.40;;;18.00;99.90;;;;;;5075498;28;20449;-60
2022/09/10 07:26:58;;;;;;;3.67;1.60;;;18.20;99.90;;;;;;5075339;28;20439;-59
2022/09/10 07:29:29;;;;;;;2.90;1.40;;;18.00;99.90;;;;;;5075638;28;20522;-59
2022/09/10 07:31:57;;;;;;;1.70;1.60;;;17.80;99.90;;;;;;5075478;28;20465;-59
2022/09/10 07:34:24;;;;;;;2.40;1.60;;;17.80;99.90;;;;;;5075281;28;20455;-59
2022/09/10 07:36:51;;;;;;;3.50;1.33;;;17.90;99.90;;;;;;5074815;28;20912;-59
2022/09/10 07:39:18;;;;;;;3.40;1.97;;;17.60;99.90;;;;;;5075073;28;21042;-59
2022/09/10 07:41:47;;;;;;;2.90;1.63;;;17.50;99.90;;;;;;5075223;28;20836;-59
2022/09/10 07:44:15;;;;;;;1.33;1.20;;;17.80;99.90;;;;;;5074936;28;20543;-60
2022/09/10 07:46:42;;;;;;;2.33;1.50;;;17.80;99.90;;;;;;5075405;28;20445;-60
2022/09/10 07:49:09;;;;;;;2.70;1.40;;;17.80;99.90;;;;;;5075005;28;20898;-59
2022/09/10 07:51:37;;;;;;;3.23;1.63;;;17.70;99.90;;;;;;5074940;28;20962;-59
2022/09/10 07:54:04;;;;;;;1.40;1.30;;;17.50;99.90;;;;;;5074939;28;20449;-59
2022/09/10 07:56:34;;;;;;;4.50;1.70;;;17.60;99.90;;;;;;5074743;28;20491;-59
2022/09/10 07:59:02;;;;;;;1.40;1.30;;;17.80;99.90;;;;;;5075056;28;20455;-60
2022/09/10 08:01:30;;;;;;;3.00;1.37;;;17.80;99.90;;;;;;5074901;28;20836;-59
2022/09/10 08:03:58;;;;;;;2.03;1.40;;;17.90;99.90;;;;;;5074780;28;20452;-60
2022/09/10 08:06:25;;;;;;;1.90;1.40;;;18.20;99.90;;;;;;5074971;28;20444;-59
2022/09/10 08:08:53;;;;;;;1.50;1.40;;;18.60;99.90;;;;;;5074894;28;20445;-59
2022/09/10 08:11:21;;;;;;;1.50;1.40;;;18.90;99.90;;;;;;5074850;28;20486;-59
2022/09/10 08:13:50;;;;;;;3.87;1.77;;;18.80;99.90;;;;;;5074448;28;20452;-59
2022/09/10 08:16:21;;;;;;;3.20;1.47;;;18.80;99.90;;;;;;5074480;28;20525;-59
2022/09/10 08:18:50;;;;;;;1.40;1.20;;;18.60;99.90;;;;;;5074680;28;20464;-60
2022/09/10 08:21:18;;;;;;;1.80;1.40;;;18.80;99.90;;;;;;5074521;28;20555;-59
2022/09/10 08:23:49;;;;;;;1.73;1.50;;;18.70;99.90;;;;;;5074463;28;20456;-60
2022/09/10 08:26:17;;;;;;;1.73;1.47;;;18.90;99.90;;;;;;5074161;28;20429;-59
2022/09/10 08:28:44;;;;;;;2.87;1.43;;;18.80;99.90;;;;;;5074502;28;20803;-59
2022/09/10 08:31:12;;;;;;;2.13;1.33;;;19.10;99.90;;;;;;5073946;28;20994;-59
2022/09/10 08:33:41;;;;;;;1.67;1.20;;;19.20;99.90;;;;;;5073943;28;20965;-59
2022/09/10 08:36:10;;;;;;;1.67;1.30;;;19.70;99.90;;;;;;5074334;28;20487;-59
2022/09/10 08:38:39;;;;;;;4.70;1.40;;;19.20;99.90;;;;;;5073952;28;20502;-59
2022/09/10 08:41:12;;;;;;;3.10;1.60;;;19.30;99.90;;;;;;5073842;28;20476;-59
2022/09/10 08:43:48;;;;;;;2.97;1.60;;;19.50;99.90;;;;;;5074213;28;20767;-59
2022/09/10 08:46:24;;;;;;;2.10;1.53;;;19.50;99.90;;;;;;5074189;28;20425;-59
2022/09/10 08:49:01;;;;;;;1.50;1.40;;;19.60;99.90;;;;;;5073510;28;20970;-59
2022/09/10 08:51:39;;;;;;;3.10;1.60;;;19.10;99.90;;;;;;5073766;28;20451;-60
2022/09/10 08:54:15;;;;;;;1.90;1.70;;;19.40;99.90;;;;;;5074221;28;20448;-59
2022/09/10 08:56:46;;;;;;;1.80;1.70;;;19.40;99.90;;;;;;5073355;28;20521;-59
2022/09/10 08:59:21;;;;;;;2.10;1.40;;;19.60;99.90;;;;;;5073822;28;20448;-60
2022/09/10 09:01:54;;;;;;;2.07;1.30;;;19.30;99.90;;;;;;5073314;28;20599;-59
2022/09/10 09:04:31;;;;;;;2.43;1.60;;;19.40;99.90;;;;;;5073272;28;20793;-59
2022/09/10 09:07:03;;;;;;;1.47;1.20;;;19.60;99.90;;;;;;5073317;28;20431;-59
2022/09/10 09:09:31;;;;;;;1.73;1.17;;;19.80;99.90;;;;;;5073092;28;20523;-59
2022/09/10 09:12:06;;;;;;;3.40;1.53;;;19.90;99.90;;;;;;5073532;28;20955;-59
2022/09/10 09:14:52;;;;;;;1.50;1.30;;;19.90;99.90;;;;;;5072879;28;20428;-60
2022/09/10 09:17:41;;;;;;;3.40;1.50;;;19.60;99.90;;;;;;5073663;28;20472;-60
2022/09/10 09:20:18;;;;;;;2.97;1.40;;;19.50;99.90;;;;;;5070974;28;20977;-60
2022/09/10 09:22:51;;;;;;;4.60;1.60;;;19.30;99.90;;;;;;5073662;28;20492;-59
2022/09/10 09:25:24;;;;;;;2.70;1.30;;;19.00;99.90;;;;;;5073519;28;20469;-59
2022/09/10 09:27:55;;;;;;;1.80;1.33;;;19.20;99.90;;;;;;5073060;28;20449;-59
2022/09/10 09:30:24;;;;;;;2.17;1.43;;;19.20;99.90;;;;;;5073143;28;20436;-59
2022/09/10 09:32:52;;;;;;;6.73;1.70;;;19.80;99.90;;;;;;5073411;28;20476;-59
2022/09/10 09:35:27;;;;;;;1.97;1.60;;;19.90;99.90;;;;;;5072982;28;20813;-59
2022/09/10 09:38:11;;;;;;;2.90;1.37;;;20.10;99.90;;;;;;5073064;28;20511;-59
2022/09/10 09:40:44;;;;;;;3.43;1.60;;;20.20;99.90;;;;;;5072952;28;20892;-59
2022/09/10 09:43:22;;;;;;;4.17;1.40;;;20.10;99.90;;;;;;5073395;28;20424;-59
2022/09/10 09:45:52;;;;;;;2.20;1.40;;;20.10;99.90;;;;;;5073454;28;20436;-60
2022/09/10 09:48:21;;;;;;;3.60;1.70;;;19.90;99.90;;;;;;5072966;28;20939;-59
2022/09/10 09:50:52;;;;;;;1.53;1.40;;;19.70;99.90;;;;;;5072708;28;20487;-59
2022/09/10 09:53:25;;;;;;;5.17;1.63;;;19.50;99.90;;;;;;5073274;28;20424;-59
2022/09/10 09:55:54;;;;;;;7.00;1.60;;;19.30;99.90;;;;;;5072791;28;20480;-59
2022/09/10 09:58:34;;;;;;;7.23;1.93;;;19.40;99.90;;;;;;5072974;28;20543;-59
2022/09/10 10:01:13;;;;;;;1.80;1.53;;;19.80;99.90;;;;;;5072840;28;20464;-59
2022/09/10 10:03:49;;;;;;;2.17;1.30;;;19.80;99.90;;;;;;5072838;28;20428;-59
2022/09/10 10:06:19;;;;;;;4.00;2.00;;;19.50;99.90;;;;;;5072844;28;20429;-59
2022/09/10 10:08:57;;;;;;;3.17;1.33;;;19.30;99.90;;;;;;5073019;28;20911;-59
2022/09/10 10:11:40;;;;;;;1.40;1.30;;;19.20;99.90;;;;;;5073096;28;20472;-59
2022/09/10 10:14:20;;;;;;;2.27;1.30;;;19.50;99.90;;;;;;5073207;28;20433;-60
2022/09/10 10:16:48;;;;;;;2.00;1.57;;;19.60;99.90;;;;;;5072712;28;20463;-59
2022/09/10 10:19:35;;;;;;;2.80;1.50;;;19.40;99.90;;;;;;5073010;28;20452;-59
2022/09/10 10:22:24;;;;;;;2.90;1.60;;;19.50;99.90;;;;;;5072930;28;20862;-60
2022/09/10 10:24:53;;;;;;;2.00;1.30;;;19.70;99.90;;;;;;5072921;28;20420;-60
2022/09/10 10:27:31;;;;;;;1.97;1.50;;;19.90;99.90;;;;;;5075281;28;20487;-60
2022/09/10 10:30:21;;;;;;;2.30;2.07;;;19.90;99.90;;;;;;5076621;28;20429;-59
2022/09/10 10:32:52;;;;;;;2.43;1.23;;;19.90;99.90;;;;;;5076665;28;20510;-60
2022/09/10 10:35:33;;;;;;;2.90;1.50;;;20.00;99.90;;;;;;5076880;28;20960;-59
2022/09/10 10:38:27;;;;;;;1.93;1.10;;;20.20;99.90;;;;;;5076868;28;20468;-60
2022/09/10 10:41:07;;;;;;;2.30;1.63;;;20.20;99.90;;;;;;5076598;28;20494;-60
2022/09/10 10:43:46;;;;;;;2.37;1.60;;;20.40;99.90;;;;;;5076425;28;20505;-60
2022/09/10 10:46:18;;;;;;;3.40;1.23;;;20.60;99.90;;;;;;5076607;28;20429;-60
2022/09/10 10:48:58;;;;;;;2.70;1.73;;;20.60;99.90;;;;;;5076226;28;20489;-59
2022/09/10 10:51:36;;;;;;;4.30;1.67;;;20.60;99.90;;;;;;5076386;28;20616;-60
2022/09/10 10:54:18;;;;;;;2.00;1.43;;;20.90;99.90;;;;;;5076074;28;20472;-60
2022/09/10 10:56:55;;;;;;;2.70;1.50;;;21.30;99.90;;;;;;5076129;28;20468;-60
2022/09/10 10:59:34;;;;;;;2.70;1.47;;;21.50;99.90;;;;;;5076077;28;20436;-60
2022/09/10 11:02:19;;;;;;;2.40;1.40;;;20.80;99.90;;;;;;5076208;28;20521;-60
2022/09/10 11:04:50;;;;;;;2.57;1.60;;;20.80;99.90;;;;;;5075911;28;20515;-60
2022/09/10 11:07:22;;;;;;;2.20;1.23;;;21.10;99.90;;;;;;5076544;28;20427;-60
2022/09/10 11:09:58;;;;;;;2.30;1.43;;;21.00;99.90;;;;;;5076134;28;20430;-60
2022/09/10 11:12:31;;;;;;;2.53;1.40;;;20.90;99.90;;;;;;5075913;28;20552;-60
2022/09/10 11:15:02;;;;;;;2.73;1.30;;;21.20;99.90;;;;;;5075882;28;20425;-60
2022/09/10 11:17:38;;;;;;;1.73;1.23;;;21.00;99.90;;;;;;5076116;28;20468;-61
2022/09/10 11:20:13;;;;;;;1.50;1.37;;;20.40;99.90;;;;;;5075983;28;20428;-60
2022/09/10 11:22:47;;;;;;;3.43;1.73;;;20.30;99.90;;;;;;5075585;28;20468;-60
2022/09/10 11:25:22;;;;;;;4.73;4.00;;;20.00;99.90;;;;;;5075405;28;20510;-60
2022/09/10 11:27:54;;;;;;;2.73;1.73;;;20.40;99.90;;;;;;5075444;28;20428;-60
2022/09/10 11:30:22;;;;;;;3.63;1.43;;;20.80;99.90;;;;;;5075781;28;20437;-59
2022/09/10 11:32:56;;;;;;;1.33;1.23;;;20.60;99.90;;;;;;5075489;28;20468;-60
2022/09/10 11:35:28;;;;;;;3.10;1.70;;;21.00;99.90;;;;;;5075364;28;20436;-59
2022/09/10 11:38:06;;;;;;;1.40;1.20;;;21.10;99.90;;;;;;5074798;28;20544;-60
2022/09/10 11:40:39;;;;;;;2.73;1.40;;;20.90;99.90;;;;;;5075497;28;20432;-60
2022/09/10 11:43:12;;;;;;;7.17;1.50;;;20.50;99.90;;;;;;5075569;28;20466;-60
2022/09/10 11:45:51;;;;;;;2.20;1.63;;;20.20;99.90;;;;;;5075023;28;20834;-60
2022/09/10 11:48:24;;;;;;;4.50;1.27;;;20.00;99.90;;;;;;5075349;28;20478;-60
2022/09/10 11:50:56;;;;;;;2.20;1.60;;;19.80;99.90;;;;;;5074762;28;20495;-59
2022/09/10 11:53:25;;;;;;;3.30;1.47;;;19.50;99.90;;;;;;5074915;28;20494;-60
2022/09/10 11:56:14;;;;;;;3.07;1.60;;;19.50;99.90;;;;;;5075171;28;20449;-60
2022/09/10 11:58:51;;;;;;;2.83;1.43;;;19.40;99.90;;;;;;5075089;28;20435;-60
2022/09/10 12:01:31;;;;;;;4.00;1.70;;;19.50;99.90;;;;;;5075078;28;20962;-60
2022/09/10 12:04:11;;;;;;;4.60;1.70;;;19.90;99.90;;;;;;5075093;28;20435;-60
2022/09/10 12:06:51;;;;;;;3.53;1.40;;;20.10;99.90;;;;;;5075226;28;20472;-60
2022/09/10 12:09:23;;;;;;;3.20;1.60;;;21.10;99.90;;;;;;5074733;28;20511;-60
2022/09/10 12:12:00;;;;;;;1.90;1.70;;;22.10;99.90;;;;;;5074917;28;20468;-60
2022/09/10 12:14:27;;;;;;;2.60;1.60;;;21.80;99.90;;;;;;5074723;28;20420;-60
2022/09/10 12:16:58;;;;;;;3.43;1.73;;;21.30;99.90;;;;;;5074334;28;20527;-60
2022/09/10 12:19:29;;;;;;;1.87;1.40;;;20.90;99.90;;;;;;5074469;28;20416;-60
2022/09/10 12:22:00;;;;;;;2.63;1.50;;;21.00;99.90;;;;;;5074482;28;20471;-60
2022/09/10 12:24:31;;;;;;;3.10;1.33;;;21.30;99.90;;;;;;5074715;28;20431;-60
2022/09/10 12:27:00;;;;;;;3.67;1.57;;;21.00;99.90;;;;;;5074521;28;20482;-60
2022/09/10 12:29:33;;;;;;;3.93;1.43;;;20.70;99.90;;;;;;5074435;28;20448;-60
2022/09/10 12:32:37;;;;;;;2.43;1.33;;;20.60;99.90;;;;;;5073965;28;20468;-60
2022/09/10 12:35:40;;;;;;;2.07;1.87;;;20.60;99.90;;;;;;5074443;28;20435;-60
2022/09/10 12:38:45;;;;;;;1.43;1.33;;;20.90;99.90;;;;;;5063892;28;20484;-60
2022/09/10 12:41:13;;;;;;;2.40;1.40;;;21.30;99.90;;;;;;5074208;28;20475;-59
2022/09/10 12:43:58;;;;;;;4.03;2.43;;;21.30;99.90;;;;;;5073899;28;20448;-59
2022/09/10 12:46:26;;;;;;;7.90;1.67;;;21.50;99.90;;;;;;5074219;28;20450;-59
2022/09/10 12:49:09;;;;;;;2.03;1.60;;;21.40;99.90;;;;;;5073461;28;20455;-59
2022/09/10 12:51:55;;;;;;;3.63;1.60;;;21.50;99.90;;;;;;5073610;28;20464;-60
2022/09/10 12:54:47;;;;;;;3.47;1.43;;;21.30;99.90;;;;;;5073858;28;20518;-59
2022/09/10 12:57:26;;;;;;;3.07;1.67;;;21.10;99.90;;;;;;5074064;28;20471;-59
2022/09/10 13:00:20;;;;;;;5.67;1.40;;;20.90;99.90;;;;;;5073627;28;20799;-59
2022/09/10 13:02:52;;;;;;;2.07;1.20;;;20.70;99.90;;;;;;5073928;28;20488;-59
2022/09/10 13:05:30;;;;;;;1.57;1.37;;;20.80;99.90;;;;;;5073899;28;20452;-59
2022/09/10 13:08:04;;;;;;;1.60;1.40;;;20.50;99.90;;;;;;5073844;28;20479;-59
2022/09/10 13:10:32;;;;;;;3.47;1.60;;;20.80;99.90;;;;;;5073376;28;20895;-59